sensor_id;sensor_type;location;lat;lon;timestamp;P1;durP1;ratioP1;P2;durP2;ratioP2
73170;SDS011;61381;50.118;19.962;2023-08-31T00:04:12;17.20;;;7.47;;
73170;SDS011;61381;50.118;19.962;2023-08-31T00:09:14;12.52;;;6.35;;
73170;SDS011;61381;50.118;19.962;2023-08-31T00:14:16;15.75;;;6.95;;
73170;SDS011;61381;50.118;19.962;2023-08-31T00:19:17;13.73;;;6.68;;
73170;SDS011;61381;50.118;19.962;2023-08-31T00:24:19;15.15;;;7.43;;
73170;SDS011;61381;50.118;19.962;2023-08-31T00:29:20;16.73;;;7.22;;
73170;SDS011;61381;50.118;19.962;2023-08-31T00:34:21;22.73;;;8.70;;
73170;SDS011;61381;50.118;19.962;2023-08-31T00:39:23;19.50;;;8.30;;
73170;SDS011;61381;50.118;19.962;2023-08-31T00:44:24;24.27;;;9.18;;
73170;SDS011;61381;50.118;19.962;2023-08-31T00:49:25;22.42;;;9.02;;
73170;SDS011;61381;50.118;19.962;2023-08-31T00:54:27;23.00;;;9.98;;
73170;SDS011;61381;50.118;19.962;2023-08-31T00:59:28;19.55;;;9.23;;
73170;SDS011;61381;50.118;19.962;2023-08-31T01:04:31;20.80;;;8.63;;
73170;SDS011;61381;50.118;19.962;2023-08-31T01:09:41;21.58;;;8.88;;
73170;SDS011;61381;50.118;19.962;2023-08-31T01:14:49;22.63;;;9.55;;
73170;SDS011;61381;50.118;19.962;2023-08-31T01:19:55;26.10;;;9.82;;
73170;SDS011;61381;50.118;19.962;2023-08-31T01:25:00;27.98;;;10.85;;
73170;SDS011;61381;50.118;19.962;2023-08-31T01:30:02;22.48;;;9.80;;
73170;SDS011;61381;50.118;19.962;2023-08-31T01:35:03;28.05;;;11.32;;
73170;SDS011;61381;50.118;19.962;2023-08-31T01:40:08;24.60;;;10.80;;
73170;SDS011;61381;50.118;19.962;2023-08-31T01:45:14;25.50;;;11.48;;
73170;SDS011;61381;50.118;19.962;2023-08-31T01:50:19;27.65;;;10.93;;
73170;SDS011;61381;50.118;19.962;2023-08-31T01:55:21;24.52;;;10.70;;
73170;SDS011;61381;50.118;19.962;2023-08-31T02:00:22;30.92;;;12.13;;
73170;SDS011;61381;50.118;19.962;2023-08-31T02:05:23;23.83;;;9.88;;
73170;SDS011;61381;50.118;19.962;2023-08-31T02:10:25;21.90;;;9.73;;
73170;SDS011;61381;50.118;19.962;2023-08-31T02:15:26;23.98;;;10.43;;
73170;SDS011;61381;50.118;19.962;2023-08-31T02:20:27;22.27;;;10.45;;
73170;SDS011;61381;50.118;19.962;2023-08-31T02:25:29;22.23;;;10.27;;
73170;SDS011;61381;50.118;19.962;2023-08-31T02:30:30;26.75;;;10.98;;
73170;SDS011;61381;50.118;19.962;2023-08-31T02:35:32;24.00;;;10.85;;
73170;SDS011;61381;50.118;19.962;2023-08-31T02:40:35;24.15;;;10.88;;
73170;SDS011;61381;50.118;19.962;2023-08-31T02:45:36;26.27;;;11.85;;
73170;SDS011;61381;50.118;19.962;2023-08-31T02:50:37;23.95;;;10.77;;
73170;SDS011;61381;50.118;19.962;2023-08-31T02:55:41;25.15;;;11.10;;
73170;SDS011;61381;50.118;19.962;2023-08-31T03:00:42;24.63;;;11.35;;
73170;SDS011;61381;50.118;19.962;2023-08-31T03:05:43;26.27;;;11.80;;
73170;SDS011;61381;50.118;19.962;2023-08-31T03:10:46;26.23;;;11.68;;
73170;SDS011;61381;50.118;19.962;2023-08-31T03:15:47;25.35;;;11.15;;
73170;SDS011;61381;50.118;19.962;2023-08-31T03:20:48;27.60;;;12.23;;
73170;SDS011;61381;50.118;19.962;2023-08-31T03:25:50;24.27;;;12.50;;
73170;SDS011;61381;50.118;19.962;2023-08-31T03:30:54;27.65;;;12.65;;
73170;SDS011;61381;50.118;19.962;2023-08-31T03:35:59;26.85;;;12.35;;
73170;SDS011;61381;50.118;19.962;2023-08-31T03:41:01;26.73;;;10.98;;
73170;SDS011;61381;50.118;19.962;2023-08-31T03:46:02;27.38;;;11.18;;
73170;SDS011;61381;50.118;19.962;2023-08-31T03:51:03;27.75;;;12.25;;
73170;SDS011;61381;50.118;19.962;2023-08-31T03:56:05;28.08;;;12.32;;
73170;SDS011;61381;50.118;19.962;2023-08-31T04:01:06;29.92;;;12.75;;
73170;SDS011;61381;50.118;19.962;2023-08-31T04:06:07;33.88;;;13.00;;
73170;SDS011;61381;50.118;19.962;2023-08-31T04:11:09;28.27;;;12.80;;
73170;SDS011;61381;50.118;19.962;2023-08-31T04:16:10;30.38;;;13.70;;
73170;SDS011;61381;50.118;19.962;2023-08-31T04:21:11;29.55;;;11.48;;
73170;SDS011;61381;50.118;19.962;2023-08-31T04:26:13;32.08;;;12.82;;
73170;SDS011;61381;50.118;19.962;2023-08-31T04:31:14;32.55;;;12.63;;
73170;SDS011;61381;50.118;19.962;2023-08-31T04:36:15;31.75;;;13.15;;
73170;SDS011;61381;50.118;19.962;2023-08-31T04:41:17;32.47;;;11.95;;
73170;SDS011;61381;50.118;19.962;2023-08-31T04:46:18;30.17;;;12.05;;
73170;SDS011;61381;50.118;19.962;2023-08-31T04:51:29;32.33;;;13.15;;
73170;SDS011;61381;50.118;19.962;2023-08-31T04:56:32;26.73;;;11.65;;
73170;SDS011;61381;50.118;19.962;2023-08-31T05:01:33;26.98;;;11.32;;
73170;SDS011;61381;50.118;19.962;2023-08-31T05:06:34;26.95;;;12.07;;
73170;SDS011;61381;50.118;19.962;2023-08-31T05:11:36;19.70;;;9.95;;
73170;SDS011;61381;50.118;19.962;2023-08-31T05:16:37;25.25;;;10.35;;
73170;SDS011;61381;50.118;19.962;2023-08-31T05:21:38;24.60;;;10.73;;
73170;SDS011;61381;50.118;19.962;2023-08-31T05:26:40;24.55;;;10.77;;
73170;SDS011;61381;50.118;19.962;2023-08-31T05:31:41;21.88;;;10.40;;
73170;SDS011;61381;50.118;19.962;2023-08-31T05:36:42;21.30;;;8.93;;
73170;SDS011;61381;50.118;19.962;2023-08-31T05:41:44;21.52;;;9.30;;
73170;SDS011;61381;50.118;19.962;2023-08-31T05:46:45;14.43;;;7.00;;
73170;SDS011;61381;50.118;19.962;2023-08-31T05:51:46;21.92;;;9.02;;
73170;SDS011;61381;50.118;19.962;2023-08-31T05:56:48;17.55;;;7.93;;
73170;SDS011;61381;50.118;19.962;2023-08-31T06:01:49;16.33;;;7.15;;
73170;SDS011;61381;50.118;19.962;2023-08-31T06:06:50;16.15;;;7.43;;
73170;SDS011;61381;50.118;19.962;2023-08-31T06:11:52;17.05;;;7.55;;
73170;SDS011;61381;50.118;19.962;2023-08-31T06:16:53;14.95;;;7.05;;
73170;SDS011;61381;50.118;19.962;2023-08-31T06:21:54;15.13;;;7.53;;
73170;SDS011;61381;50.118;19.962;2023-08-31T06:26:56;14.40;;;6.72;;
73170;SDS011;61381;50.118;19.962;2023-08-31T06:31:57;14.95;;;5.90;;
73170;SDS011;61381;50.118;19.962;2023-08-31T06:36:57;10.82;;;5.72;;
73170;SDS011;61381;50.118;19.962;2023-08-31T06:42:00;11.88;;;5.70;;
73170;SDS011;61381;50.118;19.962;2023-08-31T06:47:01;8.50;;;4.20;;
73170;SDS011;61381;50.118;19.962;2023-08-31T06:52:02;10.45;;;4.85;;
73170;SDS011;61381;50.118;19.962;2023-08-31T06:57:04;9.07;;;5.25;;
73170;SDS011;61381;50.118;19.962;2023-08-31T07:02:05;8.23;;;4.45;;
73170;SDS011;61381;50.118;19.962;2023-08-31T07:07:06;7.75;;;4.70;;
73170;SDS011;61381;50.118;19.962;2023-08-31T07:12:08;5.35;;;2.95;;
73170;SDS011;61381;50.118;19.962;2023-08-31T07:17:10;6.75;;;3.53;;
73170;SDS011;61381;50.118;19.962;2023-08-31T07:22:10;7.15;;;3.20;;
73170;SDS011;61381;50.118;19.962;2023-08-31T07:27:13;6.80;;;3.03;;
73170;SDS011;61381;50.118;19.962;2023-08-31T07:32:13;4.15;;;2.90;;
73170;SDS011;61381;50.118;19.962;2023-08-31T07:37:14;5.47;;;2.50;;
73170;SDS011;61381;50.118;19.962;2023-08-31T07:42:17;4.35;;;2.80;;
73170;SDS011;61381;50.118;19.962;2023-08-31T07:47:17;3.10;;;1.83;;
73170;SDS011;61381;50.118;19.962;2023-08-31T07:52:18;3.25;;;2.13;;
73170;SDS011;61381;50.118;19.962;2023-08-31T07:57:21;3.45;;;2.45;;
73170;SDS011;61381;50.118;19.962;2023-08-31T08:02:22;6.80;;;2.67;;
73170;SDS011;61381;50.118;19.962;2023-08-31T08:07:23;3.30;;;2.10;;
73170;SDS011;61381;50.118;19.962;2023-08-31T08:12:25;4.10;;;2.42;;
73170;SDS011;61381;50.118;19.962;2023-08-31T08:17:26;4.60;;;2.67;;
73170;SDS011;61381;50.118;19.962;2023-08-31T08:22:27;2.47;;;2.00;;
73170;SDS011;61381;50.118;19.962;2023-08-31T08:27:29;3.65;;;2.08;;
73170;SDS011;61381;50.118;19.962;2023-08-31T08:32:30;3.13;;;2.00;;
73170;SDS011;61381;50.118;19.962;2023-08-31T08:37:33;3.45;;;1.85;;
73170;SDS011;61381;50.118;19.962;2023-08-31T08:42:36;3.97;;;2.28;;
73170;SDS011;61381;50.118;19.962;2023-08-31T08:47:41;2.90;;;1.85;;
73170;SDS011;61381;50.118;19.962;2023-08-31T08:52:43;4.75;;;2.40;;
73170;SDS011;61381;50.118;19.962;2023-08-31T08:57:47;3.85;;;2.60;;
73170;SDS011;61381;50.118;19.962;2023-08-31T09:02:48;6.57;;;2.08;;
73170;SDS011;61381;50.118;19.962;2023-08-31T09:08:01;4.35;;;2.20;;
73170;SDS011;61381;50.118;19.962;2023-08-31T09:13:06;4.35;;;2.17;;
73170;SDS011;61381;50.118;19.962;2023-08-31T09:18:07;3.90;;;1.80;;
73170;SDS011;61381;50.118;19.962;2023-08-31T09:23:13;3.80;;;1.67;;
73170;SDS011;61381;50.118;19.962;2023-08-31T09:28:16;2.78;;;1.40;;
73170;SDS011;61381;50.118;19.962;2023-08-31T09:33:20;3.10;;;1.55;;
73170;SDS011;61381;50.118;19.962;2023-08-31T09:38:21;3.75;;;1.40;;
73170;SDS011;61381;50.118;19.962;2023-08-31T09:43:23;2.72;;;1.60;;
73170;SDS011;61381;50.118;19.962;2023-08-31T09:48:24;2.35;;;1.25;;
73170;SDS011;61381;50.118;19.962;2023-08-31T09:53:27;3.67;;;1.65;;
73170;SDS011;61381;50.118;19.962;2023-08-31T09:58:31;1.77;;;1.48;;
73170;SDS011;61381;50.118;19.962;2023-08-31T10:03:33;2.47;;;1.85;;
73170;SDS011;61381;50.118;19.962;2023-08-31T10:08:34;2.25;;;1.52;;
73170;SDS011;61381;50.118;19.962;2023-08-31T10:13:37;2.25;;;1.58;;
73170;SDS011;61381;50.118;19.962;2023-08-31T10:18:41;4.10;;;1.35;;
73170;SDS011;61381;50.118;19.962;2023-08-31T10:23:44;3.92;;;1.17;;
73170;SDS011;61381;50.118;19.962;2023-08-31T10:28:46;2.25;;;1.20;;
73170;SDS011;61381;50.118;19.962;2023-08-31T10:33:48;2.35;;;1.20;;
73170;SDS011;61381;50.118;19.962;2023-08-31T10:38:59;2.05;;;1.08;;
73170;SDS011;61381;50.118;19.962;2023-08-31T10:44:02;2.20;;;1.30;;
73170;SDS011;61381;50.118;19.962;2023-08-31T10:49:18;1.35;;;1.17;;
73170;SDS011;61381;50.118;19.962;2023-08-31T10:54:21;2.75;;;1.30;;
73170;SDS011;61381;50.118;19.962;2023-08-31T10:59:24;2.78;;;1.50;;
73170;SDS011;61381;50.118;19.962;2023-08-31T11:04:26;5.40;;;1.88;;
73170;SDS011;61381;50.118;19.962;2023-08-31T11:09:28;4.25;;;2.30;;
73170;SDS011;61381;50.118;19.962;2023-08-31T11:14:30;2.25;;;1.42;;
73170;SDS011;61381;50.118;19.962;2023-08-31T11:19:32;4.13;;;1.77;;
73170;SDS011;61381;50.118;19.962;2023-08-31T11:24:33;3.78;;;1.80;;
73170;SDS011;61381;50.118;19.962;2023-08-31T11:29:37;3.63;;;1.73;;
73170;SDS011;61381;50.118;19.962;2023-08-31T11:34:40;3.00;;;1.95;;
73170;SDS011;61381;50.118;19.962;2023-08-31T11:39:41;2.72;;;1.70;;
73170;SDS011;61381;50.118;19.962;2023-08-31T11:44:44;2.20;;;1.55;;
73170;SDS011;61381;50.118;19.962;2023-08-31T11:49:46;2.88;;;1.92;;
73170;SDS011;61381;50.118;19.962;2023-08-31T11:54:47;3.15;;;1.67;;
73170;SDS011;61381;50.118;19.962;2023-08-31T11:59:54;3.08;;;2.00;;
73170;SDS011;61381;50.118;19.962;2023-08-31T12:04:56;3.13;;;1.80;;
73170;SDS011;61381;50.118;19.962;2023-08-31T12:10:01;2.63;;;1.73;;
73170;SDS011;61381;50.118;19.962;2023-08-31T12:15:05;2.83;;;1.77;;
73170;SDS011;61381;50.118;19.962;2023-08-31T12:20:07;4.60;;;1.80;;
73170;SDS011;61381;50.118;19.962;2023-08-31T12:25:08;2.33;;;1.77;;
73170;SDS011;61381;50.118;19.962;2023-08-31T12:30:11;2.78;;;1.70;;
73170;SDS011;61381;50.118;19.962;2023-08-31T12:35:13;2.75;;;2.03;;
73170;SDS011;61381;50.118;19.962;2023-08-31T12:40:15;2.67;;;1.60;;
73170;SDS011;61381;50.118;19.962;2023-08-31T12:45:18;2.53;;;1.88;;
73170;SDS011;61381;50.118;19.962;2023-08-31T12:50:19;1.92;;;1.63;;
73170;SDS011;61381;50.118;19.962;2023-08-31T12:55:20;2.58;;;1.90;;
73170;SDS011;61381;50.118;19.962;2023-08-31T13:00:22;4.43;;;1.95;;
73170;SDS011;61381;50.118;19.962;2023-08-31T13:05:24;3.33;;;1.90;;
73170;SDS011;61381;50.118;19.962;2023-08-31T13:10:24;4.03;;;2.40;;
73170;SDS011;61381;50.118;19.962;2023-08-31T13:15:27;2.67;;;2.03;;
73170;SDS011;61381;50.118;19.962;2023-08-31T13:20:28;2.63;;;2.10;;
73170;SDS011;61381;50.118;19.962;2023-08-31T13:25:29;3.60;;;2.20;;
73170;SDS011;61381;50.118;19.962;2023-08-31T13:30:31;3.17;;;2.10;;
73170;SDS011;61381;50.118;19.962;2023-08-31T13:35:32;2.75;;;1.88;;
73170;SDS011;61381;50.118;19.962;2023-08-31T13:40:33;3.08;;;1.75;;
73170;SDS011;61381;50.118;19.962;2023-08-31T13:45:36;3.08;;;1.98;;
73170;SDS011;61381;50.118;19.962;2023-08-31T13:50:37;3.67;;;2.28;;
73170;SDS011;61381;50.118;19.962;2023-08-31T13:55:38;2.45;;;1.95;;
73170;SDS011;61381;50.118;19.962;2023-08-31T14:00:40;3.33;;;1.92;;
73170;SDS011;61381;50.118;19.962;2023-08-31T14:05:41;2.47;;;1.75;;
73170;SDS011;61381;50.118;19.962;2023-08-31T14:10:42;2.58;;;1.90;;
73170;SDS011;61381;50.118;19.962;2023-08-31T14:15:47;3.22;;;1.85;;
73170;SDS011;61381;50.118;19.962;2023-08-31T14:20:48;2.35;;;1.90;;
73170;SDS011;61381;50.118;19.962;2023-08-31T14:25:49;2.63;;;2.20;;
73170;SDS011;61381;50.118;19.962;2023-08-31T14:30:51;2.83;;;2.17;;
73170;SDS011;61381;50.118;19.962;2023-08-31T14:35:52;2.22;;;1.90;;
73170;SDS011;61381;50.118;19.962;2023-08-31T14:40:53;3.38;;;2.17;;
73170;SDS011;61381;50.118;19.962;2023-08-31T14:45:56;2.40;;;1.95;;
73170;SDS011;61381;50.118;19.962;2023-08-31T14:50:57;2.50;;;1.85;;
73170;SDS011;61381;50.118;19.962;2023-08-31T14:55:58;4.93;;;2.30;;
73170;SDS011;61381;50.118;19.962;2023-08-31T15:01:01;4.50;;;2.40;;
73170;SDS011;61381;50.118;19.962;2023-08-31T15:06:02;6.30;;;2.38;;
73170;SDS011;61381;50.118;19.962;2023-08-31T15:11:03;2.85;;;2.17;;
73170;SDS011;61381;50.118;19.962;2023-08-31T15:16:06;3.50;;;2.70;;
73170;SDS011;61381;50.118;19.962;2023-08-31T15:21:07;3.55;;;2.28;;
73170;SDS011;61381;50.118;19.962;2023-08-31T15:26:08;4.82;;;2.78;;
73170;SDS011;61381;50.118;19.962;2023-08-31T15:31:12;4.15;;;2.65;;
73170;SDS011;61381;50.118;19.962;2023-08-31T15:36:13;3.20;;;2.50;;
73170;SDS011;61381;50.118;19.962;2023-08-31T15:41:15;4.85;;;2.42;;
73170;SDS011;61381;50.118;19.962;2023-08-31T15:46:17;4.25;;;2.92;;
73170;SDS011;61381;50.118;19.962;2023-08-31T15:51:18;2.80;;;2.17;;
73170;SDS011;61381;50.118;19.962;2023-08-31T15:56:19;3.65;;;2.20;;
73170;SDS011;61381;50.118;19.962;2023-08-31T16:01:21;3.72;;;2.50;;
73170;SDS011;61381;50.118;19.962;2023-08-31T16:06:22;2.83;;;2.20;;
73170;SDS011;61381;50.118;19.962;2023-08-31T16:11:23;3.53;;;2.20;;
73170;SDS011;61381;50.118;19.962;2023-08-31T16:16:25;3.30;;;2.17;;
73170;SDS011;61381;50.118;19.962;2023-08-31T16:21:26;2.60;;;2.00;;
73170;SDS011;61381;50.118;19.962;2023-08-31T16:26:27;4.55;;;2.50;;
73170;SDS011;61381;50.118;19.962;2023-08-31T16:31:29;3.63;;;2.13;;
73170;SDS011;61381;50.118;19.962;2023-08-31T16:36:30;3.22;;;2.42;;
73170;SDS011;61381;50.118;19.962;2023-08-31T16:41:31;3.17;;;2.30;;
73170;SDS011;61381;50.118;19.962;2023-08-31T16:46:33;3.40;;;2.10;;
73170;SDS011;61381;50.118;19.962;2023-08-31T16:51:34;2.78;;;2.20;;
73170;SDS011;61381;50.118;19.962;2023-08-31T16:56:35;3.17;;;2.47;;
73170;SDS011;61381;50.118;19.962;2023-08-31T17:01:37;4.03;;;2.47;;
73170;SDS011;61381;50.118;19.962;2023-08-31T17:06:38;4.88;;;2.72;;
73170;SDS011;61381;50.118;19.962;2023-08-31T17:11:39;3.78;;;2.38;;
73170;SDS011;61381;50.118;19.962;2023-08-31T17:16:41;4.75;;;3.03;;
73170;SDS011;61381;50.118;19.962;2023-08-31T17:21:42;4.68;;;2.92;;
73170;SDS011;61381;50.118;19.962;2023-08-31T17:26:43;3.45;;;2.63;;
73170;SDS011;61381;50.118;19.962;2023-08-31T17:31:45;3.67;;;2.83;;
73170;SDS011;61381;50.118;19.962;2023-08-31T17:36:46;5.75;;;2.92;;
73170;SDS011;61381;50.118;19.962;2023-08-31T17:41:47;3.40;;;2.53;;
73170;SDS011;61381;50.118;19.962;2023-08-31T17:46:49;3.83;;;3.13;;
73170;SDS011;61381;50.118;19.962;2023-08-31T17:51:51;4.63;;;3.47;;
73170;SDS011;61381;50.118;19.962;2023-08-31T17:56:51;5.65;;;3.33;;
73170;SDS011;61381;50.118;19.962;2023-08-31T18:01:54;5.40;;;3.47;;
73170;SDS011;61381;50.118;19.962;2023-08-31T18:06:54;4.55;;;3.28;;
73170;SDS011;61381;50.118;19.962;2023-08-31T18:11:55;5.60;;;3.40;;
73170;SDS011;61381;50.118;19.962;2023-08-31T18:16:58;6.72;;;3.28;;
73170;SDS011;61381;50.118;19.962;2023-08-31T18:21:59;5.65;;;3.80;;
73170;SDS011;61381;50.118;19.962;2023-08-31T18:27:00;6.72;;;3.63;;
73170;SDS011;61381;50.118;19.962;2023-08-31T18:32:02;7.03;;;4.10;;
73170;SDS011;61381;50.118;19.962;2023-08-31T18:37:03;7.28;;;3.80;;
73170;SDS011;61381;50.118;19.962;2023-08-31T18:42:04;9.13;;;4.55;;
73170;SDS011;61381;50.118;19.962;2023-08-31T18:47:07;7.93;;;5.03;;
73170;SDS011;61381;50.118;19.962;2023-08-31T18:52:08;6.55;;;4.72;;
73170;SDS011;61381;50.118;19.962;2023-08-31T18:57:08;7.03;;;5.00;;
73170;SDS011;61381;50.118;19.962;2023-08-31T19:02:11;7.72;;;5.38;;
73170;SDS011;61381;50.118;19.962;2023-08-31T19:07:12;11.38;;;6.45;;
73170;SDS011;61381;50.118;19.962;2023-08-31T19:12:12;8.75;;;5.57;;
73170;SDS011;61381;50.118;19.962;2023-08-31T19:17:15;37.15;;;14.68;;
73170;SDS011;61381;50.118;19.962;2023-08-31T19:22:16;12.07;;;6.93;;
73170;SDS011;61381;50.118;19.962;2023-08-31T19:27:16;10.98;;;6.15;;
73170;SDS011;61381;50.118;19.962;2023-08-31T19:32:19;9.23;;;5.55;;
73170;SDS011;61381;50.118;19.962;2023-08-31T19:37:20;10.88;;;6.40;;
73170;SDS011;61381;50.118;19.962;2023-08-31T19:42:20;11.98;;;6.50;;
73170;SDS011;61381;50.118;19.962;2023-08-31T19:47:23;8.82;;;5.68;;
73170;SDS011;61381;50.118;19.962;2023-08-31T19:52:24;12.05;;;6.72;;
73170;SDS011;61381;50.118;19.962;2023-08-31T19:57:24;14.32;;;7.30;;
73170;SDS011;61381;50.118;19.962;2023-08-31T20:02:27;20.33;;;10.85;;
73170;SDS011;61381;50.118;19.962;2023-08-31T20:07:28;12.73;;;6.78;;
73170;SDS011;61381;50.118;19.962;2023-08-31T20:12:29;12.18;;;7.10;;
73170;SDS011;61381;50.118;19.962;2023-08-31T20:17:31;11.73;;;5.78;;
73170;SDS011;61381;50.118;19.962;2023-08-31T20:22:32;9.00;;;5.18;;
73170;SDS011;61381;50.118;19.962;2023-08-31T20:27:33;21.50;;;9.63;;
73170;SDS011;61381;50.118;19.962;2023-08-31T20:32:36;9.85;;;6.22;;
73170;SDS011;61381;50.118;19.962;2023-08-31T20:37:37;10.18;;;5.85;;
73170;SDS011;61381;50.118;19.962;2023-08-31T20:42:38;16.60;;;8.18;;
73170;SDS011;61381;50.118;19.962;2023-08-31T20:47:41;13.00;;;7.72;;
73170;SDS011;61381;50.118;19.962;2023-08-31T20:52:42;10.70;;;6.10;;
73170;SDS011;61381;50.118;19.962;2023-08-31T20:57:43;13.43;;;7.32;;
73170;SDS011;61381;50.118;19.962;2023-08-31T21:02:45;11.30;;;6.53;;
73170;SDS011;61381;50.118;19.962;2023-08-31T21:07:46;11.15;;;6.72;;
73170;SDS011;61381;50.118;19.962;2023-08-31T21:12:47;9.98;;;5.45;;
73170;SDS011;61381;50.118;19.962;2023-08-31T21:17:49;12.45;;;5.45;;
73170;SDS011;61381;50.118;19.962;2023-08-31T21:22:50;7.82;;;5.30;;
73170;SDS011;61381;50.118;19.962;2023-08-31T21:27:51;11.32;;;6.03;;
73170;SDS011;61381;50.118;19.962;2023-08-31T21:32:53;10.88;;;6.78;;
73170;SDS011;61381;50.118;19.962;2023-08-31T21:37:54;11.07;;;6.10;;
73170;SDS011;61381;50.118;19.962;2023-08-31T21:42:56;11.90;;;6.63;;
73170;SDS011;61381;50.118;19.962;2023-08-31T21:47:58;9.38;;;5.55;;
73170;SDS011;61381;50.118;19.962;2023-08-31T21:52:59;10.57;;;5.97;;
73170;SDS011;61381;50.118;19.962;2023-08-31T21:58:01;11.57;;;5.40;;
73170;SDS011;61381;50.118;19.962;2023-08-31T22:03:03;12.77;;;7.25;;
73170;SDS011;61381;50.118;19.962;2023-08-31T22:08:04;10.73;;;6.43;;
73170;SDS011;61381;50.118;19.962;2023-08-31T22:13:05;13.10;;;7.50;;
73170;SDS011;61381;50.118;19.962;2023-08-31T22:18:08;12.52;;;7.05;;
73170;SDS011;61381;50.118;19.962;2023-08-31T22:23:08;11.02;;;6.13;;
73170;SDS011;61381;50.118;19.962;2023-08-31T22:28:09;7.43;;;5.30;;
73170;SDS011;61381;50.118;19.962;2023-08-31T22:33:12;9.18;;;5.80;;
73170;SDS011;61381;50.118;19.962;2023-08-31T22:38:12;13.40;;;6.32;;
73170;SDS011;61381;50.118;19.962;2023-08-31T22:43:13;11.60;;;5.55;;
73170;SDS011;61381;50.118;19.962;2023-08-31T22:48:16;10.73;;;6.55;;
73170;SDS011;61381;50.118;19.962;2023-08-31T22:53:16;26.35;;;12.32;;
73170;SDS011;61381;50.118;19.962;2023-08-31T22:58:17;21.75;;;11.45;;
73170;SDS011;61381;50.118;19.962;2023-08-31T23:03:19;11.15;;;6.80;;
73170;SDS011;61381;50.118;19.962;2023-08-31T23:08:20;10.68;;;6.45;;
73170;SDS011;61381;50.118;19.962;2023-08-31T23:13:21;10.40;;;6.13;;
73170;SDS011;61381;50.118;19.962;2023-08-31T23:18:24;12.25;;;6.20;;
73170;SDS011;61381;50.118;19.962;2023-08-31T23:23:25;15.05;;;7.53;;
73170;SDS011;61381;50.118;19.962;2023-08-31T23:28:25;17.85;;;9.02;;
73170;SDS011;61381;50.118;19.962;2023-08-31T23:33:29;18.42;;;8.80;;
73170;SDS011;61381;50.118;19.962;2023-08-31T23:38:30;17.10;;;9.25;;
73170;SDS011;61381;50.118;19.962;2023-08-31T23:43:30;19.27;;;9.55;;
73170;SDS011;61381;50.118;19.962;2023-08-31T23:48:33;17.35;;;9.25;;
73170;SDS011;61381;50.118;19.962;2023-08-31T23:53:34;13.20;;;6.95;;
73170;SDS011;61381;50.118;19.962;2023-08-31T23:58:34;12.57;;;7.40;;
